Time;durP1;ratioP1;P1;durP2;ratioP2;P2;SDS_P1;SDS_P2;PMS_P1;PMS_P2;Temp;Humidity;BMP_temperature;BMP_pressure;BME280_temperature;BME280_humidity;BME280_pressure;Samples;Min_cycle;Max_cycle;Signal;HPM_P1;HPM_P2
2023/12/08 00:01:49;;;;;;;5.85;2.85;;;;;;;;;;6421580;22;20475;-76
2023/12/08 00:04:14;;;;;;;6.65;3.30;;;;;;;;;;6393157;22;20522;-76
2023/12/08 00:06:39;;;;;;;9.02;4.15;;;;;;;;;;6422310;22;20014;-76
2023/12/08 00:09:09;;;;;;;9.88;3.80;;;;;;;;;;6393441;22;20012;-77
2023/12/08 00:11:34;;;;;;;6.90;3.78;;;;;;;;;;6393789;22;20035;-77
2023/12/08 00:14:00;;;;;;;9.50;3.92;;;;;;;;;;6393421;22;20062;-77
2023/12/08 00:16:25;;;;;;;9.77;4.60;;;;;;;;;;6421840;22;20461;-76
2023/12/08 00:18:50;;;;;;;8.52;4.50;;;;;;;;;;6393782;22;20013;-77
2023/12/08 00:21:16;;;;;;;10.52;4.30;;;;;;;;;;6423044;22;20000;-77
2023/12/08 00:23:41;;;;;;;7.65;3.63;;;;;;;;;;6422685;22;20445;-77
2023/12/08 00:26:07;;;;;;;10.75;3.95;;;;;;;;;;6422604;22;20551;-77
2023/12/08 00:28:32;;;;;;;6.78;2.67;;;;;;;;;;6426925;22;20023;-76
2023/12/08 00:30:57;;;;;;;8.43;3.90;;;;;;;;;;6407967;22;20031;-77
2023/12/08 00:33:23;;;;;;;8.70;4.00;;;;;;;;;;6433629;22;20335;-77
2023/12/08 00:35:48;;;;;;;8.85;4.18;;;;;;;;;;6421673;22;20084;-77
2023/12/08 00:38:14;;;;;;;7.07;3.38;;;;;;;;;;6393042;22;20065;-77
2023/12/08 00:40:41;;;;;;;9.15;4.13;;;;;;;;;;6421947;22;20020;-76
2023/12/08 00:43:06;;;;;;;9.18;3.95;;;;;;;;;;6393185;22;20126;-76
2023/12/08 00:45:32;;;;;;;8.85;4.10;;;;;;;;;;6421830;22;20029;-77
2023/12/08 00:47:57;;;;;;;10.27;4.50;;;;;;;;;;6422701;22;20092;-76
2023/12/08 00:50:22;;;;;;;15.27;5.65;;;;;;;;;;6392935;22;20017;-76
2023/12/08 00:52:48;;;;;;;13.10;5.28;;;;;;;;;;6421293;22;20448;-76
2023/12/08 00:55:13;;;;;;;11.63;3.85;;;;;;;;;;6393538;22;20444;-77
2023/12/08 00:57:38;;;;;;;9.63;3.72;;;;;;;;;;6393205;22;20005;-77
2023/12/08 01:00:04;;;;;;;8.40;4.18;;;;;;;;;;6421901;22;20001;-76
2023/12/08 01:02:30;;;;;;;12.13;4.75;;;;;;;;;;6422282;22;20740;-76
2023/12/08 01:04:55;;;;;;;14.82;5.45;;;;;;;;;;6420790;22;20539;-76
2023/12/08 01:07:20;;;;;;;10.82;4.45;;;;;;;;;;6393749;22;20092;-76
2023/12/08 01:09:46;;;;;;;10.13;4.43;;;;;;;;;;6422042;22;20077;-77
2023/12/08 01:12:11;;;;;;;10.73;4.82;;;;;;;;;;6422182;22;20440;-76
2023/12/08 01:14:37;;;;;;;14.55;5.07;;;;;;;;;;6421553;22;20010;-76
2023/12/08 01:17:02;;;;;;;10.77;3.88;;;;;;;;;;6392844;22;20427;-76
2023/12/08 01:19:27;;;;;;;10.38;4.72;;;;;;;;;;6393573;22;20061;-76
2023/12/08 01:21:53;;;;;;;10.02;4.20;;;;;;;;;;6422111;22;20066;-76
2023/12/08 01:24:18;;;;;;;11.60;5.00;;;;;;;;;;6421350;22;20008;-77
2023/12/08 01:26:44;;;;;;;6.35;3.55;;;;;;;;;;6393204;22;20074;-76
2023/12/08 01:29:13;;;;;;;9.80;4.70;;;;;;;;;;6392920;22;20077;-77
2023/12/08 01:31:38;;;;;;;8.55;3.92;;;;;;;;;;6392592;22;20353;-76
2023/12/08 01:34:04;;;;;;;10.55;4.00;;;;;;;;;;6422063;22;20012;-76
2023/12/08 01:36:29;;;;;;;11.35;5.00;;;;;;;;;;6421861;22;20402;-76
2023/12/08 01:38:54;;;;;;;7.90;3.35;;;;;;;;;;6393976;22;20397;-77
2023/12/08 01:41:20;;;;;;;5.70;3.08;;;;;;;;;;6422774;22;20005;-76
2023/12/08 01:43:46;;;;;;;8.45;3.65;;;;;;;;;;6424654;22;20012;-77
2023/12/08 01:46:15;;;;;;;9.13;4.32;;;;;;;;;;6424483;22;20010;-77
2023/12/08 01:48:42;;;;;;;11.18;4.30;;;;;;;;;;6399613;22;20036;-76
2023/12/08 01:51:09;;;;;;;8.63;4.07;;;;;;;;;;6440289;22;19997;-76
2023/12/08 01:53:35;;;;;;;13.48;4.55;;;;;;;;;;6415497;22;20009;-76
2023/12/08 01:56:01;;;;;;;5.93;2.72;;;;;;;;;;6399920;22;20012;-77
2023/12/08 01:58:27;;;;;;;10.40;3.70;;;;;;;;;;6396258;22;20009;-77
2023/12/08 02:00:53;;;;;;;9.25;4.35;;;;;;;;;;6423488;22;20092;-76
2023/12/08 02:03:20;;;;;;;14.02;4.63;;;;;;;;;;6393837;22;20382;-76
2023/12/08 02:05:50;;;;;;;16.42;4.45;;;;;;;;;;6394391;22;20033;-76
2023/12/08 02:08:16;;;;;;;3.78;2.63;;;;;;;;;;6422910;22;20009;-76
2023/12/08 02:10:42;;;;;;;9.25;3.72;;;;;;;;;;6423076;22;20024;-76
2023/12/08 02:13:08;;;;;;;8.05;4.40;;;;;;;;;;6394547;22;20006;-76
2023/12/08 02:15:33;;;;;;;13.32;5.30;;;;;;;;;;6394757;22;20065;-76
2023/12/08 02:17:59;;;;;;;11.65;5.10;;;;;;;;;;6423759;22;20419;-76
2023/12/08 02:20:24;;;;;;;9.63;4.60;;;;;;;;;;6423156;22;20337;-76
2023/12/08 02:22:49;;;;;;;11.85;5.57;;;;;;;;;;6423671;22;20514;-76
2023/12/08 02:25:15;;;;;;;9.20;3.45;;;;;;;;;;6393931;22;20017;-76
2023/12/08 02:27:41;;;;;;;12.15;5.30;;;;;;;;;;6423298;22;20005;-76
2023/12/08 02:30:07;;;;;;;10.35;3.88;;;;;;;;;;6395627;22;19994;-76
2023/12/08 02:33:03;;;;;;;10.52;5.03;;;;;;;;;;6393990;22;20010;-77
2023/12/08 02:35:31;;;;;;;10.90;4.28;;;;;;;;;;6394245;22;20009;-77
2023/12/08 02:37:58;;;;;;;11.68;5.38;;;;;;;;;;6422759;22;20016;-77
2023/12/08 02:40:24;;;;;;;12.05;4.57;;;;;;;;;;6394537;22;20006;-76
2023/12/08 02:42:49;;;;;;;10.90;5.35;;;;;;;;;;6422153;22;20011;-76
2023/12/08 02:45:15;;;;;;;13.50;5.03;;;;;;;;;;6423724;22;20524;-76
2023/12/08 02:47:40;;;;;;;9.02;4.47;;;;;;;;;;6421904;22;20048;-76
2023/12/08 02:50:06;;;;;;;11.88;5.50;;;;;;;;;;6423617;22;20009;-76
2023/12/08 02:52:31;;;;;;;12.45;5.57;;;;;;;;;;6422144;22;20009;-76
2023/12/08 02:54:56;;;;;;;12.32;5.80;;;;;;;;;;6422797;22;20084;-76
2023/12/08 02:57:22;;;;;;;10.20;4.88;;;;;;;;;;6424175;22;19997;-77
2023/12/08 02:59:48;;;;;;;9.40;4.45;;;;;;;;;;6394330;22;20014;-76
2023/12/08 03:02:13;;;;;;;12.23;5.95;;;;;;;;;;6394111;22;20020;-77
2023/12/08 03:04:38;;;;;;;12.23;4.93;;;;;;;;;;6394082;22;20499;-76
2023/12/08 03:07:04;;;;;;;9.18;4.07;;;;;;;;;;6395339;22;20330;-77
2023/12/08 03:09:29;;;;;;;9.85;5.00;;;;;;;;;;6429003;22;20021;-76
2023/12/08 03:11:54;;;;;;;10.45;4.68;;;;;;;;;;6438733;22;20001;-76
2023/12/08 03:14:20;;;;;;;10.00;4.25;;;;;;;;;;6402803;22;20065;-76
2023/12/08 03:16:49;;;;;;;12.00;5.40;;;;;;;;;;6393801;22;20016;-76
2023/12/08 03:19:15;;;;;;;11.20;4.32;;;;;;;;;;6394014;22;20002;-76
2023/12/08 03:21:40;;;;;;;11.07;4.22;;;;;;;;;;6421781;22;20004;-76
2023/12/08 03:24:05;;;;;;;9.10;4.85;;;;;;;;;;6394030;22;20036;-76
2023/12/08 03:26:31;;;;;;;7.22;3.50;;;;;;;;;;6394004;22;20029;-76
2023/12/08 03:28:56;;;;;;;11.82;4.95;;;;;;;;;;6393920;22;20492;-76
2023/12/08 03:31:22;;;;;;;12.50;5.20;;;;;;;;;;6393428;22;20013;-76
2023/12/08 03:33:48;;;;;;;13.07;5.13;;;;;;;;;;6422675;22;20036;-76
2023/12/08 03:36:13;;;;;;;9.40;4.28;;;;;;;;;;6423515;22;20328;-77
2023/12/08 03:38:39;;;;;;;12.35;5.03;;;;;;;;;;6422725;22;20058;-76
2023/12/08 03:41:04;;;;;;;12.20;5.32;;;;;;;;;;6391955;22;20024;-76
2023/12/08 03:43:29;;;;;;;11.13;4.82;;;;;;;;;;6423272;22;20001;-76
2023/12/08 03:45:55;;;;;;;10.77;4.57;;;;;;;;;;6393618;22;20018;-76
2023/12/08 03:48:20;;;;;;;10.10;4.68;;;;;;;;;;6394109;22;19998;-76
2023/12/08 03:50:45;;;;;;;12.70;4.82;;;;;;;;;;6393869;22;20156;-76
2023/12/08 03:53:11;;;;;;;8.55;4.03;;;;;;;;;;6393464;22;20025;-76
2023/12/08 03:55:37;;;;;;;10.07;4.35;;;;;;;;;;6422261;22;20005;-76
2023/12/08 03:58:02;;;;;;;10.82;5.07;;;;;;;;;;6422031;22;20037;-76
2023/12/08 04:00:28;;;;;;;9.45;4.95;;;;;;;;;;6394066;22;20104;-76
2023/12/08 04:02:53;;;;;;;8.80;4.50;;;;;;;;;;6394055;22;19993;-76
2023/12/08 04:05:19;;;;;;;7.20;3.35;;;;;;;;;;6393521;22;20056;-76
2023/12/08 04:07:44;;;;;;;14.13;5.50;;;;;;;;;;6421671;22;20009;-76
2023/12/08 04:10:09;;;;;;;10.35;4.60;;;;;;;;;;6393762;22;20005;-77
2023/12/08 04:12:35;;;;;;;12.70;5.05;;;;;;;;;;6394147;22;20005;-76
2023/12/08 04:15:03;;;;;;;11.23;4.60;;;;;;;;;;6394092;22;20689;-76
2023/12/08 04:17:28;;;;;;;10.88;4.82;;;;;;;;;;6393187;22;20005;-75
2023/12/08 04:19:54;;;;;;;11.82;4.55;;;;;;;;;;6394241;22;20044;-76
2023/12/08 04:22:19;;;;;;;14.13;5.13;;;;;;;;;;6423355;22;20020;-76
2023/12/08 04:24:44;;;;;;;14.13;5.45;;;;;;;;;;6394048;22;20547;-77
2023/12/08 04:27:10;;;;;;;15.27;5.28;;;;;;;;;;6395695;22;20865;-76
2023/12/08 04:29:35;;;;;;;15.60;5.50;;;;;;;;;;6428570;22;20013;-76
2023/12/08 04:32:00;;;;;;;9.55;4.57;;;;;;;;;;6439223;22;20013;-76
2023/12/08 04:34:26;;;;;;;14.82;5.50;;;;;;;;;;6439759;22;20444;-76
2023/12/08 04:36:51;;;;;;;13.75;5.70;;;;;;;;;;6397361;22;20032;-76
2023/12/08 04:39:16;;;;;;;19.17;5.90;;;;;;;;;;6424877;22;20005;-76
2023/12/08 04:41:42;;;;;;;14.20;5.10;;;;;;;;;;6394207;22;20037;-77
2023/12/08 04:44:07;;;;;;;12.13;5.10;;;;;;;;;;6394004;22;20014;-76
2023/12/08 04:46:32;;;;;;;13.90;5.85;;;;;;;;;;6393628;22;20406;-76
2023/12/08 04:48:58;;;;;;;15.10;5.03;;;;;;;;;;6422209;22;20004;-76
2023/12/08 04:51:23;;;;;;;16.25;5.70;;;;;;;;;;6422686;22;19997;-76
2023/12/08 04:53:49;;;;;;;14.23;4.63;;;;;;;;;;6421778;22;20016;-76
2023/12/08 04:56:14;;;;;;;6.20;3.55;;;;;;;;;;6421868;22;20013;-76
2023/12/08 04:58:39;;;;;;;13.73;5.93;;;;;;;;;;6422210;22;20002;-76
2023/12/08 05:01:05;;;;;;;16.05;5.82;;;;;;;;;;6421616;22;20033;-76
2023/12/08 05:03:30;;;;;;;16.67;5.95;;;;;;;;;;6421556;22;20019;-76
2023/12/08 05:05:56;;;;;;;20.52;6.35;;;;;;;;;;6421953;22;20400;-76
2023/12/08 05:08:23;;;;;;;9.65;4.35;;;;;;;;;;6422309;22;20013;-75
2023/12/08 05:10:48;;;;;;;11.48;5.55;;;;;;;;;;6393185;22;20045;-76
2023/12/08 05:13:15;;;;;;;15.45;5.72;;;;;;;;;;6393599;22;20356;-77
2023/12/08 05:15:41;;;;;;;19.27;6.25;;;;;;;;;;6420926;22;19993;-76
2023/12/08 05:18:07;;;;;;;15.73;5.68;;;;;;;;;;6396040;22;20004;-76
2023/12/08 05:20:32;;;;;;;21.58;6.40;;;;;;;;;;6395309;22;20017;-76
2023/12/08 05:22:58;;;;;;;17.15;5.78;;;;;;;;;;6393122;22;20036;-75
2023/12/08 05:25:23;;;;;;;11.38;4.82;;;;;;;;;;6394889;22;20009;-76
2023/12/08 05:27:48;;;;;;;18.80;6.30;;;;;;;;;;6395504;22;20456;-76
2023/12/08 05:30:14;;;;;;;26.98;7.82;;;;;;;;;;6424193;22;19993;-75
2023/12/08 05:32:39;;;;;;;17.00;5.78;;;;;;;;;;6423193;22;20021;-76
2023/12/08 05:35:07;;;;;;;18.70;6.93;;;;;;;;;;6395174;22;20058;-76
2023/12/08 05:37:33;;;;;;;19.17;7.97;;;;;;;;;;6424765;22;20105;-76
2023/12/08 05:39:58;;;;;;;15.15;6.75;;;;;;;;;;6395619;22;20025;-76
2023/12/08 05:42:23;;;;;;;21.77;7.28;;;;;;;;;;6395577;22;19993;-76
2023/12/08 05:44:49;;;;;;;18.42;7.07;;;;;;;;;;6395794;22;20013;-76
2023/12/08 05:47:14;;;;;;;28.40;7.38;;;;;;;;;;6425125;22;20461;-76
2023/12/08 05:49:39;;;;;;;25.05;7.43;;;;;;;;;;6401090;22;20443;-76
2023/12/08 05:52:05;;;;;;;18.08;6.72;;;;;;;;;;6438081;22;20016;-76
2023/12/08 05:54:30;;;;;;;22.75;7.20;;;;;;;;;;6409405;22;20027;-76
2023/12/08 05:56:58;;;;;;;18.40;6.63;;;;;;;;;;6398111;22;20050;-76
2023/12/08 05:59:23;;;;;;;19.35;7.30;;;;;;;;;;6423393;22;20360;-76
2023/12/08 06:01:49;;;;;;;25.40;7.80;;;;;;;;;;6424038;22;20017;-76
2023/12/08 06:04:14;;;;;;;17.85;6.47;;;;;;;;;;6423018;22;20059;-76
2023/12/08 06:06:39;;;;;;;22.17;6.50;;;;;;;;;;6395042;22;19997;-76
2023/12/08 06:09:07;;;;;;;21.17;7.55;;;;;;;;;;6424288;22;20073;-76
2023/12/08 06:11:33;;;;;;;25.23;7.30;;;;;;;;;;6395279;22;20463;-77
2023/12/08 06:13:58;;;;;;;26.45;7.90;;;;;;;;;;6423327;22;20013;-76
2023/12/08 06:16:23;;;;;;;23.05;7.32;;;;;;;;;;6394911;22;20001;-76
2023/12/08 06:18:49;;;;;;;26.38;6.95;;;;;;;;;;6394325;22;20013;-77
2023/12/08 06:21:14;;;;;;;20.58;7.68;;;;;;;;;;6395351;22;20096;-76
2023/12/08 06:23:41;;;;;;;24.58;7.30;;;;;;;;;;6421902;22;20009;-76
2023/12/08 06:26:06;;;;;;;31.50;7.88;;;;;;;;;;6394972;22;20020;-76
2023/12/08 06:28:32;;;;;;;22.80;7.20;;;;;;;;;;6394252;22;20116;-76
2023/12/08 06:30:58;;;;;;;21.33;7.72;;;;;;;;;;6424089;22;20068;-76
2023/12/08 06:33:23;;;;;;;25.77;7.80;;;;;;;;;;6423152;22;20028;-76
2023/12/08 06:35:48;;;;;;;25.30;7.45;;;;;;;;;;6394997;22;20006;-76
2023/12/08 06:38:14;;;;;;;25.77;7.10;;;;;;;;;;6395206;22;20005;-76
2023/12/08 06:40:41;;;;;;;22.08;6.72;;;;;;;;;;6396648;22;20080;-76
2023/12/08 06:43:06;;;;;;;27.27;7.55;;;;;;;;;;6429653;22;20013;-76
2023/12/08 06:45:31;;;;;;;23.40;7.88;;;;;;;;;;6425721;22;20573;-76
2023/12/08 06:47:57;;;;;;;25.60;7.40;;;;;;;;;;6424121;22;20002;-77
2023/12/08 06:50:22;;;;;;;26.65;7.07;;;;;;;;;;6394471;22;20057;-76
2023/12/08 06:52:51;;;;;;;30.92;7.20;;;;;;;;;;6421476;22;20073;-76
2023/12/08 06:55:16;;;;;;;25.35;6.93;;;;;;;;;;6394743;22;20141;-76
2023/12/08 06:57:42;;;;;;;30.10;8.40;;;;;;;;;;6394170;22;20034;-76
2023/12/08 07:00:10;;;;;;;24.48;7.82;;;;;;;;;;6394801;22;20000;-77
2023/12/08 07:02:36;;;;;;;29.58;7.80;;;;;;;;;;6393929;22;20009;-76
2023/12/08 07:05:01;;;;;;;27.90;7.28;;;;;;;;;;6394596;22;20714;-77
2023/12/08 07:07:27;;;;;;;22.38;8.05;;;;;;;;;;6396051;22;20013;-76
2023/12/08 07:09:52;;;;;;;22.20;7.10;;;;;;;;;;6430981;22;20008;-76
2023/12/08 07:12:17;;;;;;;24.55;7.43;;;;;;;;;;6413518;22;19993;-76
2023/12/08 07:14:43;;;;;;;24.55;6.95;;;;;;;;;;6410385;22;20046;-77
2023/12/08 07:17:08;;;;;;;20.48;7.55;;;;;;;;;;6426508;22;20088;-76
2023/12/08 07:19:34;;;;;;;20.02;7.05;;;;;;;;;;6423575;22;20080;-76
2023/12/08 07:21:59;;;;;;;17.80;7.28;;;;;;;;;;6423335;22;20013;-76
2023/12/08 07:24:25;;;;;;;24.20;7.75;;;;;;;;;;6423422;22;20009;-76
2023/12/08 07:26:54;;;;;;;22.55;7.72;;;;;;;;;;6394976;22;20408;-76
2023/12/08 07:29:22;;;;;;;21.80;7.60;;;;;;;;;;6394601;22;20013;-76
2023/12/08 07:31:47;;;;;;;28.77;8.38;;;;;;;;;;6422972;22;20009;-77
2023/12/08 07:34:12;;;;;;;22.85;6.88;;;;;;;;;;6423133;22;20040;-76
2023/12/08 07:36:38;;;;;;;26.00;8.23;;;;;;;;;;6393110;22;19994;-76
2023/12/08 07:39:03;;;;;;;23.00;7.15;;;;;;;;;;6423164;22;20047;-76
2023/12/08 07:41:29;;;;;;;30.00;7.65;;;;;;;;;;6423067;22;20013;-76
2023/12/08 07:43:55;;;;;;;26.98;7.25;;;;;;;;;;6421402;22;20024;-77
2023/12/08 07:46:23;;;;;;;24.00;7.95;;;;;;;;;;6422687;22;20013;-76
2023/12/08 07:48:48;;;;;;;29.67;7.18;;;;;;;;;;6393396;22;20059;-76
2023/12/08 07:51:13;;;;;;;32.40;6.90;;;;;;;;;;6423169;22;19997;-76
2023/12/08 07:53:39;;;;;;;23.55;8.05;;;;;;;;;;6421863;22;20016;-76
2023/12/08 07:56:05;;;;;;;22.55;7.68;;;;;;;;;;6393808;22;20013;-76
2023/12/08 07:58:30;;;;;;;23.63;8.05;;;;;;;;;;6394186;22;20028;-76
2023/12/08 08:00:56;;;;;;;22.83;7.47;;;;;;;;;;6393078;22;20152;-76
2023/12/08 08:03:22;;;;;;;20.83;7.15;;;;;;;;;;6394874;22;20004;-78
2023/12/08 08:05:47;;;;;;;24.52;6.63;;;;;;;;;;6393271;22;20018;-77
2023/12/08 08:08:13;;;;;;;24.17;9.48;;;;;;;;;;6393966;22;20009;-76
2023/12/08 08:10:38;;;;;;;20.38;7.68;;;;;;;;;;6422202;22;20009;-77
2023/12/08 08:13:04;;;;;;;19.33;7.18;;;;;;;;;;6393920;22;20409;-76
2023/12/08 08:15:29;;;;;;;9.50;4.00;;;;;;;;;;6393569;22;19997;-76
2023/12/08 08:17:54;;;;;;;25.52;6.50;;;;;;;;;;6423334;22;19997;-76
2023/12/08 08:20:20;;;;;;;18.90;6.88;;;;;;;;;;6422523;22;20017;-76
2023/12/08 08:22:45;;;;;;;22.77;6.50;;;;;;;;;;6393631;22;20013;-76
2023/12/08 08:25:11;;;;;;;17.35;6.93;;;;;;;;;;6422841;22;20010;-76
2023/12/08 08:27:36;;;;;;;18.27;7.10;;;;;;;;;;6424136;22;20080;-76
2023/12/08 08:30:03;;;;;;;15.38;5.95;;;;;;;;;;6403852;22;19996;-76
2023/12/08 08:32:28;;;;;;;18.45;7.03;;;;;;;;;;6408916;22;20019;-76
2023/12/08 08:34:54;;;;;;;20.73;7.15;;;;;;;;;;6426092;22;20033;-76
2023/12/08 08:37:22;;;;;;;19.50;6.65;;;;;;;;;;6422458;22;20080;-76
2023/12/08 08:39:49;;;;;;;20.50;6.72;;;;;;;;;;6421945;22;20008;-76
2023/12/08 08:42:14;;;;;;;16.27;6.65;;;;;;;;;;6394618;22;20092;-77
2023/12/08 08:44:39;;;;;;;18.38;6.88;;;;;;;;;;6422264;22;20051;-76
2023/12/08 08:47:05;;;;;;;23.35;7.70;;;;;;;;;;6392942;22;20065;-75
2023/12/08 08:49:32;;;;;;;15.13;5.85;;;;;;;;;;6421754;22;20017;-76
2023/12/08 08:51:58;;;;;;;18.63;6.72;;;;;;;;;;6393612;22;20066;-76
2023/12/08 08:54:23;;;;;;;16.30;5.40;;;;;;;;;;6393586;22;20002;-77
2023/12/08 08:56:48;;;;;;;22.27;6.93;;;;;;;;;;6422376;22;20017;-76
2023/12/08 08:59:14;;;;;;;18.33;7.38;;;;;;;;;;6421327;22;20009;-76
2023/12/08 09:01:40;;;;;;;20.48;6.38;;;;;;;;;;6393080;22;20006;-77
2023/12/08 09:04:06;;;;;;;20.27;6.40;;;;;;;;;;6421975;22;20017;-77
2023/12/08 09:06:31;;;;;;;16.77;5.93;;;;;;;;;;6421895;22;20084;-76
2023/12/08 09:08:57;;;;;;;17.25;6.15;;;;;;;;;;6422266;22;20047;-77
2023/12/08 09:11:22;;;;;;;13.00;5.10;;;;;;;;;;6393016;22;20102;-76
2023/12/08 09:13:47;;;;;;;22.75;6.68;;;;;;;;;;6421999;22;20013;-77
2023/12/08 09:16:13;;;;;;;12.30;5.00;;;;;;;;;;6422127;22;20016;-76
2023/12/08 09:18:38;;;;;;;27.10;6.57;;;;;;;;;;6393245;22;20003;-77
2023/12/08 09:21:05;;;;;;;22.67;6.18;;;;;;;;;;6422472;22;19998;-77
2023/12/08 09:23:30;;;;;;;20.52;6.03;;;;;;;;;;6421090;22;20013;-77
2023/12/08 09:25:56;;;;;;;21.67;6.80;;;;;;;;;;6422374;22;20401;-77
2023/12/08 09:28:21;;;;;;;18.95;6.32;;;;;;;;;;6392503;22;20425;-77
2023/12/08 09:30:47;;;;;;;17.83;6.72;;;;;;;;;;6393559;22;20334;-77
2023/12/08 09:33:12;;;;;;;22.42;6.32;;;;;;;;;;6422548;22;20008;-77
2023/12/08 09:35:38;;;;;;;24.80;7.25;;;;;;;;;;6421523;22;20073;-77
2023/12/08 09:38:04;;;;;;;12.07;4.35;;;;;;;;;;6393622;22;20017;-76
2023/12/08 09:40:31;;;;;;;17.67;6.78;;;;;;;;;;6393770;22;20021;-77
2023/12/08 09:43:32;;;;;;;27.30;7.30;;;;;;;;;;6393939;22;20028;-76
2023/12/08 09:45:57;;;;;;;14.05;5.43;;;;;;;;;;6394255;22;20503;-76
2023/12/08 09:48:24;;;;;;;23.35;7.13;;;;;;;;;;6398076;22;20005;-76
2023/12/08 09:50:50;;;;;;;25.10;7.93;;;;;;;;;;6408042;22;20017;-76
2023/12/08 09:53:16;;;;;;;25.65;10.18;;;;;;;;;;6413296;22;20024;-77
2023/12/08 09:55:43;;;;;;;31.55;11.50;;;;;;;;;;6398737;22;20013;-77
2023/12/08 09:58:10;;;;;;;30.00;8.55;;;;;;;;;;6394771;22;20075;-76
2023/12/08 10:00:35;;;;;;;27.42;9.25;;;;;;;;;;6422140;22;20466;-77
2023/12/08 10:03:01;;;;;;;21.67;6.68;;;;;;;;;;6424222;22;20433;-77
2023/12/08 10:05:27;;;;;;;25.63;9.20;;;;;;;;;;6395825;22;20025;-76
2023/12/08 10:07:54;;;;;;;25.92;8.13;;;;;;;;;;6424047;22;20013;-77
2023/12/08 10:10:21;;;;;;;17.42;6.85;;;;;;;;;;6423991;22;20005;-76
2023/12/08 10:12:47;;;;;;;21.67;7.25;;;;;;;;;;6423995;22;20024;-77
2023/12/08 10:15:15;;;;;;;23.55;6.38;;;;;;;;;;6424411;22;20462;-77
2023/12/08 10:17:51;;;;;;;19.75;6.32;;;;;;;;;;6423245;22;20013;-76
2023/12/08 10:20:19;;;;;;;17.90;5.32;;;;;;;;;;6394942;22;20042;-77
2023/12/08 10:22:56;;;;;;;25.15;6.80;;;;;;;;;;6394629;22;20066;-77
2023/12/08 10:25:23;;;;;;;18.67;6.47;;;;;;;;;;6393035;22;20048;-76
2023/12/08 10:27:54;;;;;;;19.95;5.65;;;;;;;;;;6394319;22;20017;-76
2023/12/08 10:30:25;;;;;;;21.60;6.20;;;;;;;;;;6395471;22;20005;-77
2023/12/08 10:32:50;;;;;;;21.80;6.25;;;;;;;;;;6394547;22;20013;-77
2023/12/08 10:35:16;;;;;;;22.15;5.57;;;;;;;;;;6394197;22;20009;-77
2023/12/08 10:37:43;;;;;;;16.15;5.40;;;;;;;;;;6422976;22;20013;-77
2023/12/08 10:40:12;;;;;;;19.88;5.80;;;;;;;;;;6422706;22;20001;-77
2023/12/08 10:42:37;;;;;;;12.80;5.82;;;;;;;;;;6393728;22;20079;-76
2023/12/08 10:45:10;;;;;;;29.17;7.97;;;;;;;;;;6394732;22;20520;-77
2023/12/08 10:47:49;;;;;;;16.30;6.22;;;;;;;;;;6394156;22;20088;-77
2023/12/08 10:50:14;;;;;;;27.45;8.13;;;;;;;;;;6422967;22;20089;-77
2023/12/08 10:52:40;;;;;;;22.98;5.25;;;;;;;;;;6394094;22;20045;-77
2023/12/08 10:55:07;;;;;;;14.93;5.25;;;;;;;;;;6394434;22;20005;-77
2023/12/08 10:57:34;;;;;;;19.13;5.65;;;;;;;;;;6394377;22;20005;-76
2023/12/08 11:00:19;;;;;;;18.25;5.88;;;;;;;;;;6423722;22;20028;-76
2023/12/08 11:02:49;;;;;;;23.23;6.32;;;;;;;;;;6394505;22;20930;-77
2023/12/08 11:05:37;;;;;;;20.33;6.35;;;;;;;;;;6423313;22;20017;-77
2023/12/08 11:08:06;;;;;;;20.77;5.85;;;;;;;;;;6427308;22;20476;-76
2023/12/08 11:10:36;;;;;;;18.75;6.00;;;;;;;;;;6436870;22;20005;-77
2023/12/08 11:13:08;;;;;;;28.40;6.47;;;;;;;;;;6405827;22;20725;-77
2023/12/08 11:15:37;;;;;;;13.60;6.10;;;;;;;;;;6423763;22;20344;-77
2023/12/08 11:18:11;;;;;;;19.02;7.47;;;;;;;;;;6395042;22;19993;-78
2023/12/08 11:20:37;;;;;;;21.35;6.55;;;;;;;;;;6394087;22;20025;-77
2023/12/08 11:23:03;;;;;;;22.42;6.80;;;;;;;;;;6422513;22;20062;-77
2023/12/08 11:25:36;;;;;;;17.63;6.18;;;;;;;;;;6394072;22;20009;-77
2023/12/08 11:28:24;;;;;;;31.50;7.35;;;;;;;;;;6422898;22;20005;-77
2023/12/08 11:31:09;;;;;;;21.88;7.80;;;;;;;;;;6394065;22;20062;-76
2023/12/08 11:33:49;;;;;;;26.67;8.18;;;;;;;;;;6394792;22;20048;-76
2023/12/08 11:36:18;;;;;;;22.85;7.03;;;;;;;;;;6394236;22;20029;-76
2023/12/08 11:38:44;;;;;;;21.15;6.97;;;;;;;;;;6393675;22;20014;-75
2023/12/08 11:41:15;;;;;;;35.13;6.97;;;;;;;;;;6393320;22;20431;-76
2023/12/08 11:43:42;;;;;;;19.20;6.53;;;;;;;;;;6422744;22;20013;-76
2023/12/08 11:46:08;;;;;;;21.10;7.03;;;;;;;;;;6422110;22;20345;-76
2023/12/08 11:48:35;;;;;;;19.92;6.65;;;;;;;;;;6422738;22;20016;-76
2023/12/08 11:51:01;;;;;;;20.85;6.75;;;;;;;;;;6423322;22;20611;-76
2023/12/08 11:53:26;;;;;;;22.95;6.43;;;;;;;;;;6393539;22;20041;-76
2023/12/08 11:55:52;;;;;;;20.98;6.78;;;;;;;;;;6422633;22;20010;-76
2023/12/08 11:58:19;;;;;;;34.15;7.85;;;;;;;;;;6393916;22;20073;-76
2023/12/08 12:00:47;;;;;;;22.20;7.13;;;;;;;;;;6393787;22;20096;-76
2023/12/08 12:03:12;;;;;;;26.45;7.13;;;;;;;;;;6423208;22;20042;-76
2023/12/08 12:05:38;;;;;;;24.13;7.93;;;;;;;;;;6393758;22;20017;-76
2023/12/08 12:08:07;;;;;;;25.27;7.00;;;;;;;;;;6422455;22;20013;-76
2023/12/08 12:10:33;;;;;;;23.48;6.85;;;;;;;;;;6394119;22;20023;-76
2023/12/08 12:13:03;;;;;;;21.38;6.80;;;;;;;;;;6421658;22;20005;-76
2023/12/08 12:15:30;;;;;;;19.13;5.97;;;;;;;;;;6422465;22;19997;-76
2023/12/08 12:17:56;;;;;;;22.55;6.85;;;;;;;;;;6423523;22;20068;-76
2023/12/08 12:20:22;;;;;;;21.02;7.28;;;;;;;;;;6422239;22;20521;-76
2023/12/08 12:22:47;;;;;;;26.20;6.78;;;;;;;;;;6421199;22;20071;-76
2023/12/08 12:25:12;;;;;;;22.38;7.05;;;;;;;;;;6423438;22;20473;-76
2023/12/08 12:27:41;;;;;;;17.77;6.85;;;;;;;;;;6426631;22;19998;-76
2023/12/08 12:30:08;;;;;;;18.35;6.13;;;;;;;;;;6409916;22;20046;-76
2023/12/08 12:32:33;;;;;;;19.85;7.07;;;;;;;;;;6414161;22;20066;-76
2023/12/08 12:34:59;;;;;;;21.77;7.50;;;;;;;;;;6427625;22;20009;-76
2023/12/08 12:37:25;;;;;;;22.70;8.00;;;;;;;;;;6424011;22;20017;-76
2023/12/08 12:39:50;;;;;;;25.08;6.30;;;;;;;;;;6394071;22;20013;-76
2023/12/08 12:42:16;;;;;;;20.25;6.90;;;;;;;;;;6394583;22;20002;-76
2023/12/08 12:44:43;;;;;;;19.08;6.63;;;;;;;;;;6422321;22;20427;-76
2023/12/08 12:47:09;;;;;;;17.77;5.93;;;;;;;;;;6422243;22;20012;-76
2023/12/08 12:49:39;;;;;;;24.45;6.15;;;;;;;;;;6393944;22;20005;-75
2023/12/08 12:52:25;;;;;;;22.83;7.05;;;;;;;;;;6422267;22;20072;-76
2023/12/08 12:54:54;;;;;;;21.08;6.50;;;;;;;;;;6421824;22;20025;-76
2023/12/08 12:57:39;;;;;;;29.05;6.90;;;;;;;;;;6422223;22;20407;-76
2023/12/08 13:00:06;;;;;;;22.00;6.13;;;;;;;;;;6394238;22;20939;-76
2023/12/08 13:02:32;;;;;;;23.55;7.20;;;;;;;;;;6422012;22;20016;-76
2023/12/08 13:05:03;;;;;;;30.90;7.90;;;;;;;;;;6391606;22;20107;-76
2023/12/08 13:07:29;;;;;;;22.50;6.88;;;;;;;;;;6392934;22;20084;-76
2023/12/08 13:09:56;;;;;;;24.38;7.47;;;;;;;;;;6422381;22;20952;-76
2023/12/08 13:12:21;;;;;;;32.17;7.05;;;;;;;;;;6393217;22;20084;-76
2023/12/08 13:14:46;;;;;;;21.88;6.47;;;;;;;;;;6392943;22;20913;-76
2023/12/08 13:17:12;;;;;;;27.33;7.47;;;;;;;;;;6392681;22;20005;-76
2023/12/08 13:19:37;;;;;;;26.88;7.47;;;;;;;;;;6392866;22;20001;-76
2023/12/08 13:22:03;;;;;;;25.35;8.13;;;;;;;;;;6393545;22;20487;-76
2023/12/08 13:24:28;;;;;;;25.88;7.10;;;;;;;;;;6421793;22;20023;-76
2023/12/08 13:26:53;;;;;;;28.38;7.13;;;;;;;;;;6391972;22;20001;-76
2023/12/08 13:29:19;;;;;;;28.02;7.65;;;;;;;;;;6392189;22;20009;-76
2023/12/08 13:31:44;;;;;;;23.45;8.52;;;;;;;;;;6421785;22;20054;-76
2023/12/08 13:34:09;;;;;;;33.90;8.48;;;;;;;;;;6421092;22;20005;-76
2023/12/08 13:36:36;;;;;;;27.42;8.18;;;;;;;;;;6392942;22;20008;-76
2023/12/08 13:39:03;;;;;;;23.88;6.95;;;;;;;;;;6424627;22;20365;-76
2023/12/08 13:41:29;;;;;;;28.33;7.35;;;;;;;;;;6424266;22;20016;-76
2023/12/08 13:43:54;;;;;;;28.95;7.88;;;;;;;;;;6424223;22;20014;-76
2023/12/08 13:46:20;;;;;;;27.98;6.85;;;;;;;;;;6425644;22;20429;-76
2023/12/08 13:48:45;;;;;;;21.65;7.05;;;;;;;;;;6433656;22;20005;-76
2023/12/08 13:51:10;;;;;;;23.48;7.07;;;;;;;;;;6410866;22;19997;-76
2023/12/08 13:53:36;;;;;;;25.98;7.22;;;;;;;;;;6398985;22;20025;-76
2023/12/08 13:56:01;;;;;;;35.38;8.10;;;;;;;;;;6395317;22;20894;-76
2023/12/08 13:58:26;;;;;;;27.08;6.97;;;;;;;;;;6418957;22;20001;-76
2023/12/08 14:00:52;;;;;;;21.90;6.53;;;;;;;;;;6422134;22;20080;-77
2023/12/08 14:03:17;;;;;;;26.40;7.80;;;;;;;;;;6422971;22;20001;-76
2023/12/08 14:05:44;;;;;;;31.40;7.68;;;;;;;;;;6421401;22;20026;-77
2023/12/08 14:08:09;;;;;;;23.23;7.00;;;;;;;;;;6422362;22;20017;-77
2023/12/08 14:10:35;;;;;;;32.05;7.75;;;;;;;;;;6421281;22;20016;-76
2023/12/08 14:13:00;;;;;;;21.35;6.40;;;;;;;;;;6422112;22;20009;-77
2023/12/08 14:15:26;;;;;;;22.10;7.03;;;;;;;;;;6420294;22;20050;-77
2023/12/08 14:17:51;;;;;;;30.63;6.50;;;;;;;;;;6421753;22;20004;-77
2023/12/08 14:20:16;;;;;;;28.80;6.70;;;;;;;;;;6421360;22;20033;-76
2023/12/08 14:22:42;;;;;;;25.92;6.65;;;;;;;;;;6422079;22;20025;-77
2023/12/08 14:25:07;;;;;;;23.33;5.70;;;;;;;;;;6421923;22;20041;-76
2023/12/08 14:27:33;;;;;;;22.08;6.68;;;;;;;;;;6394117;22;20266;-77